Terminal Aerodrome Forecast
Issued by NWS Sterling, VA

Current Version | Previous Version | Graphics & Text | Print | Product List | Glossary On
Versions: 1 2 3 4 5 6 7 8 9 10 11 12 13 14 15 16 17 18 19 20 21 22 23 24 25 26 27 28 29
000
FTUS41 KLWX 011500 AAA
TAFIAD
TAF AMD
KIAD 011500Z 0115/0218 17007KT 5SM -FZRAPL BR BKN015 OVC030
     FM011800 18007KT 4SM -FZRA BR BKN009 OVC020
     FM012300 18005KT 3SM BR BKN008 BKN015 OVC035
     FM020600 19005KT P6SM OVC020
     FM020900 26005KT P6SM OVC050
     FM021400 30012G25KT P6SM BKN040=

USA.gov is the U.S. government's official web portal to all federal, state and local government web resources and services.